Date,TemperatureHighF,TemperatureAvgF,TemperatureLowF,DewpointHighF,DewpointAvgF,DewpointLowF,HumidityHigh,HumidityAvg,HumidityLow,PressureMaxIn,PressureMinIn,WindSpeedMaxMPH,WindSpeedAvgMPH,GustSpeedMaxMPH,PrecipitationSumIn
2013-1-1,13,5,-3,-100,-100,-100,0,0,100,0.00,40.00,0,-999,0,0.00
2013-1-2,18,6,-6,-100,-100,-100,0,0,100,0.00,40.00,0,-999,0,0.00
2013-1-3,19,1,-10,-100,-100,-100,0,0,100,0.00,40.00,0,-999,0,0.00
2013-1-4,29,10,-3,-100,-100,-100,0,0,100,0.00,40.00,0,-999,0,0.00
2013-1-5,31,12,-3,-100,-100,-100,0,0,100,0.00,40.00,0,-999,0,0.00
2013-1-6,40,18,-1,-100,-100,-100,0,0,100,0.00,40.00,0,-999,0,0.01
2013-1-7,37,18,5,-100,-100,-100,0,0,100,0.00,40.00,0,-999,0,0.01
2013-1-8,31,16,6,-100,-100,-100,0,0,100,0.00,40.00,0,-999,0,0.00
2013-1-9,43,19,5,-100,-100,-100,0,0,100,0.00,40.00,0,-999,0,0.00
2013-1-10,40,25,12,-100,-100,-100,0,0,100,0.00,40.00,0,-999,0,0.01
2013-1-11,29,15,2,-100,-100,-100,0,0,100,0.00,40.00,0,-999,0,0.01
2013-1-12,5,-4,-17,-100,-100,-100,0,0,100,0.00,40.00,0,-999,0,0.00
2013-1-13,8,-6,-17,-100,-100,-100,0,0,100,0.00,40.00,0,-999,0,0.00
2013-1-14,7,-6,-18,-100,-100,-100,0,0,100,0.00,40.00,0,-999,0,0.00
2013-1-15,8,-4,-23,-100,-100,-100,0,0,100,0.00,40.00,0,-999,0,0.01
2013-1-16,29,14,2,-100,-100,-100,0,0,100,0.00,40.00,0,-999,0,0.01
2013-1-17,36,16,3,-100,-100,-100,0,0,100,0.00,40.00,0,-999,0,0.00
2013-1-18,35,17,4,-100,-100,-100,0,0,100,0.00,40.00,0,-999,0,0.00
2013-1-19,37,14,2,-100,-100,-100,0,0,100,0.00,40.00,0,-999,0,0.00
2013-1-20,35,18,4,-100,-100,-100,0,0,100,0.00,40.00,0,-999,0,0.00
2013-1-21,35,18,4,-100,-100,-100,0,0,100,0.00,40.00,0,-999,0,0.00
2013-1-22,42,21,6,-100,-100,-100,0,0,100,0.00,40.00,0,-999,0,0.00
2013-1-23,48,24,8,-100,-100,-100,0,0,100,0.00,40.00,0,-999,0,0.00
2013-1-24,38,28,17,-100,-100,-100,0,0,100,0.00,40.00,0,-999,0,0.01
2013-1-25,37,33,30,-100,-100,-100,0,0,100,0.00,40.00,0,-999,0,0.01
2013-1-26,41,29,-32,-100,-100,-100,0,0,100,0.00,40.00,0,-999,0,0.00
2013-1-27,38,-11,-45,-100,-100,-100,0,0,100,0.00,40.00,0,-999,0,0.01
2013-1-28,30,23,16,-100,-100,-100,0,0,100,0.00,40.00,0,-999,0,0.01
2013-1-29,14,10,4,-100,-100,-100,0,0,100,0.00,40.00,0,-999,0,0.01
2013-1-30,16,10,4,-100,-100,-100,0,0,100,0.00,40.00,0,-999,0,0.01
2013-1-31,27,22,17,-100,-100,-100,0,0,100,0.00,40.00,0,-999,0,0.01
2013-2-1,28,21,12,-100,-100,-100,0,0,100,0.00,40.00,0,-999,0,0.00
2013-2-2,36,18,3,-100,-100,-100,0,0,100,0.00,40.00,0,-999,0,0.00
2013-2-3,36,20,9,-100,-100,-100,0,0,100,0.00,40.00,0,-999,0,0.01
2013-2-4,36,18,2,-100,-100,-100,0,0,100,0.00,40.00,0,-999,0,0.00
2013-2-5,43,21,4,-100,-100,-100,0,0,100,0.00,40.00,0,-999,0,0.00
2013-2-6,35,23,12,-100,-100,-100,0,0,100,0.00,40.00,0,-999,0,0.01
2013-2-7,35,18,7,-100,-100,-100,0,0,100,0.00,40.00,0,-999,0,0.01
2013-2-8,39,22,1,-100,-100,-100,0,0,100,0.00,40.00,0,-999,0,0.01
2013-2-9,28,21,14,-100,-100,-100,0,0,100,0.00,40.00,0,-999,0,0.01
2013-2-10,21,14,8,-100,-100,-100,0,0,100,0.00,40.00,0,-999,0,0.01
2013-2-11,19,10,-1,-100,-100,-100,0,0,100,0.00,40.00,0,-999,0,0.00
2013-2-12,22,7,-11,-100,-100,-100,0,0,100,0.00,40.00,0,-999,0,0.00
2013-2-13,27,18,12,-100,-100,-100,0,0,100,0.00,40.00,0,-999,0,0.01
2013-2-14,27,20,14,-100,-100,-100,0,0,100,0.00,40.00,0,-999,0,0.01
2013-2-15,24,17,4,-100,-100,-100,0,0,100,0.00,40.00,0,-999,0,0.00
2013-2-16,36,20,1,-100,-100,-100,0,0,100,0.00,40.00,0,-999,0,0.00
2013-2-17,37,21,3,-100,-100,-100,0,0,100,0.00,40.00,0,-999,0,0.00
2013-2-18,23,14,-4,-100,-100,-100,0,0,100,0.00,40.00,0,-999,0,0.01
2013-2-19,38,17,-7,-100,-100,-100,0,0,100,0.00,40.00,0,-999,0,0.01
2013-2-20,35,23,9,-100,-100,-100,0,0,100,0.00,40.00,0,-999,0,0.01
2013-2-21,24,20,11,-100,-100,-100,0,0,100,0.00,40.00,0,-999,0,0.01
2013-2-22,22,12,3,-100,-100,-100,0,0,100,0.00,40.00,0,-999,0,0.00
2013-2-23,28,14,-4,-100,-100,-100,0,0,100,0.00,40.00,0,-999,0,0.01
2013-2-24,20,15,11,-100,-100,-100,0,0,100,0.00,40.00,0,-999,0,0.01
2013-2-25,27,16,-2,-100,-100,-100,0,0,100,0.00,40.00,0,-999,0,0.00
2013-2-26,18,12,3,-100,-100,-100,0,0,100,0.00,40.00,0,-999,0,0.01
2013-2-27,22,6,-9,-100,-100,-100,0,0,100,0.00,40.00,0,-999,0,0.01
2013-2-28,27,9,-11,-100,-100,-100,0,0,100,0.00,40.00,0,-999,0,0.01
2013-3-1,30,24,18,-100,-100,-100,0,0,100,0.00,40.00,0,-999,0,0.01
2013-3-2,42,28,15,-100,-100,-100,0,0,100,0.00,40.00,0,-999,0,0.01
2013-3-3,39,29,18,-100,-100,-100,0,0,100,0.00,40.00,0,-999,0,0.01
2013-3-4,32,24,-1,-100,-100,-100,0,0,100,0.00,40.00,0,-999,0,0.02
2013-3-5,39,15,-9,-100,-100,-100,0,0,100,0.00,40.00,0,-999,0,0.00
2013-3-6,45,26,7,-100,-100,-100,0,0,100,0.00,40.00,0,-999,0,0.01
2013-3-7,47,31,18,-100,-100,-100,0,0,100,0.00,40.00,0,-999,0,0.01
2013-3-8,47,31,20,-100,-100,-100,0,0,100,0.00,40.00,0,-999,0,0.00
2013-3-9,29,24,17,-100,-100,-100,0,0,100,0.00,40.00,0,-999,0,0.02
2013-3-10,29,18,7,-100,-100,-100,0,0,100,0.00,40.00,0,-999,0,0.01
2013-3-11,36,21,6,-100,-100,-100,0,0,100,0.00,40.00,0,-999,0,0.01
2013-3-12,39,31,23,-100,-100,-100,0,0,100,0.00,40.00,0,-999,0,0.01
2013-3-13,45,29,17,-100,-100,-100,0,0,100,0.00,40.00,0,-999,0,0.00
2013-3-14,49,32,17,-100,-100,-100,0,0,100,0.00,40.00,0,-999,0,0.00
2013-3-15,51,36,22,-100,-100,-100,0,0,100,0.00,40.00,0,-999,0,0.00
2013-3-16,38,33,29,-100,-100,-100,0,0,100,0.00,40.00,0,-999,0,0.00
2013-3-17,34,27,18,-100,-100,-100,0,0,100,0.00,40.00,0,-999,0,0.01
2013-3-18,32,26,20,-100,-100,-100,0,0,100,0.00,40.00,0,-999,0,0.01
2013-3-19,36,29,13,-100,-100,-100,0,0,100,0.00,40.00,0,-999,0,0.00
2013-3-20,41,25,6,-100,-100,-100,0,0,100,0.00,40.00,0,-999,0,0.01
2013-3-21,32,28,19,-100,-100,-100,0,0,100,0.00,40.00,0,-999,0,0.03
2013-3-22,34,22,5,-100,-100,-100,0,0,100,0.00,40.00,0,-999,0,0.01
2013-3-23,20,14,9,-100,-100,-100,0,0,100,0.00,40.00,0,-999,0,0.01
2013-3-24,19,8,-5,-100,-100,-100,0,0,100,0.00,40.00,0,-999,0,0.01
2013-3-25,29,10,-15,-100,-100,-100,0,0,100,0.00,40.00,0,-999,0,0.01
2013-3-26,44,28,1,-100,-100,-100,0,0,100,0.00,40.00,0,-999,0,0.01
2013-3-27,44,33,23,-100,-100,-100,0,0,100,0.00,40.00,0,-999,0,0.01
2013-3-28,46,32,17,-100,-100,-100,0,0,100,0.00,40.00,0,-999,0,0.00
2013-3-29,45,35,24,-100,-100,-100,0,0,100,0.00,40.00,0,-999,0,0.01
2013-3-30,47,34,22,-100,-100,-100,0,0,100,0.00,40.00,0,-999,0,0.00
2013-3-31,50,32,17,-100,-100,-100,0,0,100,0.00,40.00,0,-999,0,0.00
2013-4-1,48,36,23,-100,-100,-100,0,0,100,0.00,40.00,0,-999,0,0.01
2013-4-2,42,30,21,-100,-100,-100,0,0,100,0.00,40.00,0,-999,0,0.01
2013-4-3,43,32,22,-100,-100,-100,0,0,100,0.00,40.00,0,-999,0,0.01
2013-4-4,51,36,22,-100,-100,-100,0,0,100,0.00,40.00,0,-999,0,0.00
2013-4-5,49,38,26,-100,-100,-100,0,0,100,0.00,40.00,0,-999,0,0.00
2013-4-6,44,36,29,-100,-100,-100,0,0,100,0.00,40.00,0,-999,0,0.01
2013-4-7,40,33,24,-100,-100,-100,0,0,100,0.00,40.00,0,-999,0,0.01
2013-4-8,47,36,29,-100,-100,-100,0,0,100,0.00,40.00,0,-999,0,0.01
2013-4-9,34,29,18,-100,-100,-100,0,0,100,0.00,40.00,0,-999,0,0.00
2013-4-10,28,18,10,-100,-100,-100,0,0,100,0.00,40.00,0,-999,0,0.00
2013-4-11,39,30,18,-100,-100,-100,0,0,100,0.00,40.00,0,-999,0,0.01
2013-4-12,42,32,24,-100,-100,-100,0,0,100,0.00,40.00,0,-999,0,0.01
2013-4-13,45,32,17,-100,-100,-100,0,0,100,0.00,40.00,0,-999,0,0.01
2013-4-14,32,29,22,-100,-100,-100,0,0,100,0.00,40.00,0,-999,0,0.04
2013-4-15,35,30,21,-100,-100,-100,0,0,100,0.00,40.00,0,-999,0,0.03
2013-4-16,46,32,22,-100,-100,-100,0,0,100,0.00,40.00,0,-999,0,0.03
2013-4-17,31,24,13,-100,-100,-100,0,0,100,0.00,40.00,0,-999,0,0.01
2013-4-18,21,14,6,-100,-100,-100,0,0,100,0.00,40.00,0,-999,0,0.01
2013-4-19,38,22,6,-100,-100,-100,0,0,100,0.00,40.00,0,-999,0,0.01
2013-4-20,40,26,-13,-100,-100,-100,0,0,100,0.00,40.00,0,-999,0,0.01
2013-4-21,41,14,-18,-100,-100,-100,0,0,100,0.00,40.00,0,-999,0,0.01
2013-4-22,40,16,-8,-100,-100,-100,0,0,100,0.00,40.00,0,-999,0,0.00
2013-4-23,32,26,17,-100,-100,-100,0,0,100,0.00,40.00,0,-999,0,0.02
2013-4-24,40,33,18,-100,-100,-100,0,0,100,0.00,40.00,0,-999,0,0.00
2013-4-25,50,33,15,-100,-100,-100,0,0,100,0.00,40.00,0,-999,0,0.00
2013-4-26,51,41,22,-100,-100,-100,0,0,100,0.00,40.00,0,-999,0,0.01
2013-4-27,53,38,21,-100,-100,-100,0,0,100,0.00,40.00,0,-999,0,0.00
2013-4-28,57,40,24,-100,-100,-100,0,0,100,0.00,40.00,0,-999,0,0.00
2013-4-29,58,47,30,-100,-100,-100,0,0,100,0.00,40.00,0,-999,0,0.01
2013-4-30,55,46,33,-100,-100,-100,0,0,100,0.00,40.00,0,-999,0,0.00
2013-5-1,39,30,19,-100,-100,-100,0,0,100,0.00,40.00,0,-999,0,0.02
2013-5-2,35,23,8,-100,-100,-100,0,0,100,0.00,40.00,0,-999,0,0.01
2013-5-3,50,34,12,-100,-100,-100,0,0,100,0.00,40.00,0,-999,0,0.00
2013-5-4,51,36,23,-100,-100,-100,0,0,100,0.00,40.00,0,-999,0,0.01
2013-5-5,51,41,30,-100,-100,-100,0,0,100,0.00,40.00,0,-999,0,0.00
2013-5-6,50,39,31,-100,-100,-100,0,0,100,0.00,40.00,0,-999,0,0.01
2013-5-7,48,38,33,-100,-100,-100,0,0,100,0.00,40.00,0,-999,0,0.01
2013-5-8,38,33,28,-100,-100,-100,0,0,100,0.00,40.00,0,-999,0,0.02
2013-5-9,44,36,30,-100,-100,-100,0,0,100,0.00,40.00,0,-999,0,0.02
2013-5-10,49,35,24,-100,-100,-100,0,0,100,0.00,40.00,0,-999,0,0.00
2013-5-11,53,40,26,-100,-100,-100,0,0,100,0.00,40.00,0,-999,0,0.00
2013-5-12,56,43,32,-100,-100,-100,0,0,100,0.00,40.00,0,-999,0,0.00
2013-5-13,61,44,32,-100,-100,-100,0,0,100,0.00,40.00,0,-999,0,0.00
2013-5-14,63,44,32,-100,-100,-100,0,0,100,0.00,40.00,0,-999,0,0.00
2013-5-15,59,44,33,-100,-100,-100,0,0,100,0.00,40.00,0,-999,0,0.00
2013-5-16,60,45,32,-100,-100,-100,0,0,100,0.00,40.00,0,-999,0,0.00
2013-5-17,62,46,33,-100,-100,-100,0,0,100,0.00,40.00,0,-999,0,0.00
2013-5-18,52,39,31,-100,-100,-100,0,0,100,0.00,40.00,0,-999,0,0.01
2013-5-19,42,36,33,-100,-100,-100,0,0,100,0.00,40.00,0,-999,0,0.02
2013-5-20,43,36,32,-100,-100,-100,0,0,100,0.00,40.00,0,-999,0,0.01
2013-5-21,54,40,31,-100,-100,-100,0,0,100,0.00,40.00,0,-999,0,0.01
2013-5-22,62,46,30,-100,-100,-100,0,0,100,0.00,40.00,0,-999,0,0.00
2013-5-23,65,53,39,-100,-100,-100,0,0,100,0.00,40.00,0,-999,0,0.00
2013-5-24,65,49,33,-100,-100,-100,0,0,100,0.00,40.00,0,-999,0,0.00
2013-5-25,65,50,32,-100,-100,-100,0,0,100,0.00,40.00,0,-999,0,0.00
2013-5-26,66,50,33,-100,-100,-100,0,0,100,0.00,40.00,0,-999,0,0.00
2013-5-27,62,48,32,-100,-100,-100,0,0,100,0.00,40.00,0,-999,0,0.00
2013-5-28,60,46,32,-100,-100,-100,0,0,100,0.00,40.00,0,-999,0,0.00
2013-5-29,43,38,35,-100,-100,-100,0,0,100,0.00,40.00,0,-999,0,0.01
2013-5-30,49,41,35,-100,-100,-100,0,0,100,0.00,40.00,0,-999,0,0.01
2013-5-31,51,44,35,-100,-100,-100,0,0,100,0.00,40.00,0,-999,0,0.00
2013-6-1,57,44,29,-100,-100,-100,0,0,100,0.00,40.00,0,-999,0,0.00
2013-6-2,67,50,30,-100,-100,-100,0,0,100,0.00,40.00,0,-999,0,0.00
2013-6-3,65,52,36,-100,-100,-100,0,0,100,0.00,40.00,0,-999,0,0.00
2013-6-4,63,52,34,-100,-100,-100,0,0,100,0.00,40.00,0,-999,0,0.00
2013-6-5,64,52,35,-100,-100,-100,0,0,100,0.00,40.00,0,-999,0,0.00
2013-6-6,64,49,33,-100,-100,-100,0,0,100,0.00,40.00,0,-999,0,0.00
2013-6-7,65,47,36,-100,-100,-100,0,0,100,0.00,40.00,0,-999,0,0.00
2013-6-8,67,53,40,-100,-100,-100,0,0,100,0.00,40.00,0,-999,0,0.00
2013-6-9,72,56,35,-100,-100,-100,0,0,100,0.00,40.00,0,-999,0,0.00
2013-6-10,75,59,39,-100,-100,-100,0,0,100,0.00,40.00,0,-999,0,0.00
2013-6-11,71,58,41,-100,-100,-100,0,0,100,0.00,40.00,0,-999,0,0.00
2013-6-12,73,56,38,-100,-100,-100,0,0,100,0.00,40.00,0,-999,0,0.00
2013-6-13,72,59,43,-100,-100,-100,0,0,100,0.00,40.00,0,-999,0,0.00
2013-6-14,70,58,42,-100,-100,-100,0,0,100,0.00,40.00,0,-999,0,0.00
2013-6-15,68,53,34,-100,-100,-100,0,0,100,0.00,40.00,0,-999,0,0.00
2013-6-16,59,48,38,-100,-100,-100,0,0,100,0.00,40.00,0,-999,0,0.01
2013-6-17,67,51,36,-100,-100,-100,0,0,100,0.00,40.00,0,-999,0,0.00
2013-6-18,69,55,41,-100,-100,-100,0,0,100,0.00,40.00,0,-999,0,0.00
2013-6-19,70,54,36,-100,-100,-100,0,0,100,0.00,40.00,0,-999,0,0.84
2013-6-20,70,49,36,-100,-100,-100,0,0,100,0.00,40.00,0,-999,0,0.00
2013-6-22,68,61,45,-100,-100,-100,0,0,100,0.00,40.00,0,-999,0,0.00
2013-6-23,68,53,33,-100,-100,-100,0,0,100,0.00,40.00,0,-999,0,0.00
2013-6-24,68,56,36,-100,-100,-100,0,0,100,0.00,40.00,0,-999,0,0.00
2013-6-25,67,55,42,-100,-100,-100,0,0,100,0.00,40.00,0,-999,0,0.00
2013-6-26,74,57,38,-100,-100,-100,0,0,100,0.00,40.00,0,-999,0,0.00
2013-6-27,79,60,41,-100,-100,-100,0,0,100,0.00,40.00,0,-999,0,0.00
2013-6-28,78,63,45,-100,-100,-100,0,0,100,0.00,40.00,0,-999,0,0.00
2013-6-29,73,59,46,-100,-100,-100,0,0,100,0.00,40.00,0,-999,0,0.00
2013-6-30,69,57,41,-100,-100,-100,0,0,100,0.00,40.00,0,-999,0,0.00
2013-7-1,69,54,39,-100,-100,-100,0,0,100,0.00,40.00,0,-999,0,0.00
2013-7-2,68,54,41,-100,-100,-100,0,0,100,0.00,40.00,0,-999,0,0.00
2013-7-3,70,52,38,-100,-100,-100,0,0,100,0.00,40.00,0,-999,0,0.00
2013-7-4,74,57,39,-100,-100,-100,0,0,100,0.00,40.00,0,-999,0,0.00
2013-7-5,69,57,47,-100,-100,-100,0,0,100,0.00,40.00,0,-999,0,0.00
2013-7-6,70,56,44,-100,-100,-100,0,0,100,0.00,40.00,0,-999,0,0.01
2013-7-7,74,61,44,-100,-100,-100,0,0,100,0.00,40.00,0,-999,0,0.00
2013-7-8,71,54,42,-100,-100,-100,0,0,100,0.00,40.00,0,-999,0,0.01
2013-7-9,72,58,43,-100,-100,-100,0,0,100,0.00,40.00,0,-999,0,0.00
2013-7-10,77,63,47,-100,-100,-100,0,0,100,0.00,40.00,0,-999,0,0.00
2013-7-11,76,60,45,-100,-100,-100,0,0,100,0.00,40.00,0,-999,0,0.00
2013-7-12,66,55,48,-100,-100,-100,0,0,100,0.00,40.00,0,-999,0,0.01
2013-7-13,68,58,47,-100,-100,-100,0,0,100,0.00,40.00,0,-999,0,0.01
2013-7-14,71,57,44,-100,-100,-100,0,0,100,0.00,40.00,0,-999,0,0.00
2013-7-15,71,56,46,-100,-100,-100,0,0,100,0.00,40.00,0,-999,0,0.00
2013-7-16,72,58,40,-100,-100,-100,0,0,100,0.00,40.00,0,-999,0,0.00
2013-7-17,74,56,45,-100,-100,-100,0,0,100,0.00,40.00,0,-999,0,0.00
2013-7-18,71,54,42,-100,-100,-100,0,0,100,0.00,40.00,0,-999,0,0.04
2013-7-19,69,56,46,-100,-100,-100,0,0,100,0.00,40.00,0,-999,0,0.01
2013-7-20,73,56,42,-100,-100,-100,0,0,100,0.00,40.00,0,-999,0,0.00
2013-7-21,75,58,40,-100,-100,-100,0,0,100,0.00,40.00,0,-999,0,0.00
2013-7-22,76,58,44,-100,-100,-100,0,0,100,0.00,40.00,0,-999,0,0.00
2013-7-23,78,59,40,-100,-100,-100,0,0,100,0.00,40.00,0,-999,0,0.00
2013-7-24,68,57,49,-100,-100,-100,0,0,100,0.00,40.00,0,-999,0,0.00
2013-7-25,65,54,45,-100,-100,-100,0,0,100,0.00,40.00,0,-999,0,0.01
2013-7-26,69,56,40,-100,-100,-100,0,0,100,0.00,40.00,0,-999,0,0.00
2013-7-27,67,54,41,-100,-100,-100,0,0,100,0.00,40.00,0,-999,0,0.00
2013-7-28,55,50,48,-100,-100,-100,0,0,100,0.00,40.00,0,-999,0,0.02
2013-7-29,62,51,43,-100,-100,-100,0,0,100,0.00,40.00,0,-999,0,0.02
2013-7-30,65,53,38,-100,-100,-100,0,0,100,0.00,40.00,0,-999,0,0.00
2013-7-31,68,54,39,-100,-100,-100,0,0,100,0.00,40.00,0,-999,0,0.00
2013-8-1,65,51,41,-100,-100,-100,0,0,100,0.00,40.00,0,-999,0,0.01
2013-8-2,68,55,41,-100,-100,-100,0,0,100,0.00,40.00,0,-999,0,0.01
2013-8-3,70,53,42,-100,-100,-100,0,0,100,0.00,40.00,0,-999,0,0.00
2013-8-4,68,53,40,-100,-100,-100,0,0,100,0.00,40.00,0,-999,0,0.01
2013-8-5,63,53,41,-100,-100,-100,0,0,100,0.00,40.00,0,-999,0,0.01
2013-8-6,65,51,40,-100,-100,-100,0,0,100,0.00,40.00,0,-999,0,0.00
2013-8-7,58,47,40,-100,-100,-100,0,0,100,0.00,40.00,0,-999,0,0.01
2013-8-8,58,47,40,-100,-100,-100,0,0,100,0.00,40.00,0,-999,0,0.01
2013-8-9,59,48,37,-100,-100,-100,0,0,100,0.00,40.00,0,-999,0,0.01
2013-8-10,66,51,35,-100,-100,-100,0,0,100,0.00,40.00,0,-999,0,0.00
2013-8-11,67,50,38,-100,-100,-100,0,0,100,0.00,40.00,0,-999,0,0.00
2013-8-12,62,52,38,-100,-100,-100,0,0,100,0.00,40.00,0,-999,0,0.00
2013-8-13,63,48,35,-100,-100,-100,0,0,100,0.00,40.00,0,-999,0,0.00
2013-8-14,61,48,36,-100,-100,-100,0,0,100,0.00,40.00,0,-999,0,0.01
2013-8-15,71,53,35,-100,-100,-100,0,0,100,0.00,40.00,0,-999,0,0.00
2013-8-16,71,58,38,-100,-100,-100,0,0,100,0.00,40.00,0,-999,0,0.00
2013-8-17,71,58,40,-100,-100,-100,0,0,100,0.00,40.00,0,-999,0,0.00
2013-8-18,67,54,41,-100,-100,-100,0,0,100,0.00,40.00,0,-999,0,0.01
2013-8-19,75,53,39,-100,-100,-100,0,0,100,0.00,40.00,0,-999,0,0.00
2013-8-20,72,55,42,-100,-100,-100,0,0,100,0.00,40.00,0,-999,0,0.00
2013-8-21,73,55,40,-100,-100,-100,0,0,100,0.00,40.00,0,-999,0,0.00
2013-8-22,67,55,45,-100,-100,-100,0,0,100,0.00,40.00,0,-999,0,0.02
2013-8-23,68,55,41,-100,-100,-100,0,0,100,0.00,40.00,0,-999,0,0.01
2013-8-24,64,54,42,-100,-100,-100,0,0,100,0.00,40.00,0,-999,0,0.00
2013-8-25,63,54,46,-100,-100,-100,0,0,100,0.00,40.00,0,-999,0,0.00
2013-8-26,68,56,47,-100,-100,-100,0,0,100,0.00,40.00,0,-999,0,0.00
2013-8-27,69,52,42,-100,-100,-100,0,0,100,0.00,40.00,0,-999,0,0.00
2013-8-28,72,64,55,-100,-100,-100,0,0,100,0.00,40.00,0,-999,0,0.00
2013-8-29,71,55,42,-100,-100,-100,0,0,100,0.00,40.00,0,-999,0,0.00
2013-8-30,67,57,46,-100,-100,-100,0,0,100,0.00,40.00,0,-999,0,0.01
2013-8-31,64,53,46,-100,-100,-100,0,0,100,0.00,40.00,0,-999,0,0.01
2013-9-1,68,56,45,-100,-100,-100,0,0,100,0.00,40.00,0,-999,0,0.01
2013-9-2,71,54,43,-100,-100,-100,0,0,100,0.00,40.00,0,-999,0,0.00
2013-9-3,71,54,42,-100,-100,-100,0,0,100,0.00,40.00,0,-999,0,0.00
2013-9-4,71,58,46,-100,-100,-100,0,0,100,0.00,40.00,0,-999,0,0.00
2013-9-5,71,55,44,-100,-100,-100,0,0,100,0.00,40.00,0,-999,0,0.01
2013-9-6,71,54,41,-100,-100,-100,0,0,100,0.00,40.00,0,-999,0,0.01
2013-9-7,71,55,43,-100,-100,-100,0,0,100,0.00,40.00,0,-999,0,0.01
2013-9-8,68,56,42,-100,-100,-100,0,0,100,0.00,40.00,0,-999,0,0.01
2013-9-9,59,52,45,-100,-100,-100,0,0,100,0.00,40.00,0,-999,0,0.01
2013-9-10,60,52,44,-100,-100,-100,0,0,100,0.00,40.00,0,-999,0,0.01
2013-9-11,62,54,43,-100,-100,-100,0,0,100,0.00,40.00,0,-999,0,0.00
2013-9-12,60,49,40,-100,-100,-100,0,0,100,0.00,40.00,0,-999,0,0.02
2013-9-13,58,50,45,-100,-100,-100,0,0,100,0.00,40.00,0,-999,0,0.02
2013-9-14,55,47,42,-100,-100,-100,0,0,100,0.00,40.00,0,-999,0,0.01
2013-9-15,54,44,38,-100,-100,-100,0,0,100,0.00,40.00,0,-999,0,0.00
2013-9-16,58,46,38,-100,-100,-100,0,0,100,0.00,40.00,0,-999,0,0.00
2013-9-17,64,48,35,-100,-100,-100,0,0,100,0.00,40.00,0,-999,0,0.00
2013-9-18,45,42,39,-100,-100,-100,0,0,100,0.00,40.00,0,-999,0,0.01
2013-9-19,54,44,34,-100,-100,-100,0,0,100,0.00,40.00,0,-999,0,0.01
2013-9-20,62,45,28,-100,-100,-100,0,0,100,0.00,40.00,0,-999,0,0.00
2013-9-21,62,46,33,-100,-100,-100,0,0,100,0.00,40.00,0,-999,0,0.00
2013-9-22,57,43,34,-100,-100,-100,0,0,100,0.00,40.00,0,-999,0,0.02
2013-9-23,45,36,30,-100,-100,-100,0,0,100,0.00,40.00,0,-999,0,0.03
2013-9-24,61,42,27,-100,-100,-100,0,0,100,0.00,40.00,0,-999,0,0.01
2013-9-25,62,48,33,-100,-100,-100,0,0,100,0.00,40.00,0,-999,0,0.00
2013-9-26,61,49,34,-100,-100,-100,0,0,100,0.00,40.00,0,-999,0,0.00
2013-9-27,46,35,27,-100,-100,-100,0,0,100,0.00,40.00,0,-999,0,0.02
2013-9-28,46,30,18,-100,-100,-100,0,0,100,0.00,40.00,0,-999,0,0.01
2013-9-29,54,38,25,-100,-100,-100,0,0,100,0.00,40.00,0,-999,0,0.00
2013-9-30,61,48,30,-100,-100,-100,0,0,100,0.00,40.00,0,-999,0,0.00
2013-10-1,38,37,36,-100,-100,-100,0,0,100,0.00,40.00,0,-999,0,0.00
2013-10-2,61,47,29,-100,-100,-100,0,0,100,0.00,40.00,0,-999,0,0.00
2013-10-3,58,47,32,-100,-100,-100,0,0,100,0.00,40.00,0,-999,0,0.00
2013-10-4,31,28,23,-100,-100,-100,0,0,100,0.00,40.00,0,-999,0,0.01
2013-10-5,38,29,21,-100,-100,-100,0,0,100,0.00,40.00,0,-999,0,0.01
2013-10-6,52,34,18,-100,-100,-100,0,0,100,0.00,40.00,0,-999,0,0.00
2013-10-7,60,38,25,-100,-100,-100,0,0,100,0.00,40.00,0,-999,0,0.00
2013-10-8,58,40,29,-100,-100,-100,0,0,100,0.00,40.00,0,-999,0,0.00
2013-10-9,58,41,29,-100,-100,-100,0,0,100,0.00,40.00,0,-999,0,0.00
2013-10-10,46,40,33,-100,-100,-100,0,0,100,0.00,40.00,0,-999,0,0.01
2013-10-11,35,32,30,-100,-100,-100,0,0,100,0.00,40.00,0,-999,0,0.01
2013-10-12,43,30,20,-100,-100,-100,0,0,100,0.00,40.00,0,-999,0,0.00
2013-10-13,52,41,27,-100,-100,-100,0,0,100,0.00,40.00,0,-999,0,0.00
2013-10-21,32,28,26,-100,-100,-100,0,0,100,0.00,40.00,0,-999,0,0.00
2013-10-22,50,34,21,-100,-100,-100,0,0,100,0.00,40.00,0,-999,0,0.00
2013-10-23,24,24,24,-100,-100,-100,0,0,100,0.00,40.00,0,-999,0,0.00
2013-10-24,53,44,26,-100,-100,-100,0,0,100,0.00,40.00,0,-999,0,0.00
2013-10-25,39,30,26,-100,-100,-100,0,0,100,0.00,40.00,0,-999,0,0.00
2013-10-26,49,35,26,-100,-100,-100,0,0,100,0.00,40.00,0,-999,0,0.00
2013-10-27,44,33,27,-100,-100,-100,0,0,100,0.00,40.00,0,-999,0,0.00
2013-11-12,49,32,23,-100,-100,-100,0,0,100,0.00,40.00,0,-999,0,0.00
2013-11-13,42,35,22,-100,-100,-100,0,0,100,0.00,40.00,0,-999,0,0.00
2013-11-14,41,28,20,-100,-100,-100,0,0,100,0.00,40.00,0,-999,0,0.00
2013-11-15,35,34,32,-100,-100,-100,0,0,100,0.00,40.00,0,-999,0,0.00
2013-11-16,26,24,21,-100,-100,-100,0,0,100,0.00,40.00,0,-999,0,0.00
2013-11-17,32,32,32,-100,-100,-100,0,0,100,0.00,40.00,0,-999,0,0.00
2013-11-18,41,19,9,-100,-100,-100,0,0,100,0.00,40.00,0,-999,0,0.00
2013-11-19,38,28,11,-100,-100,-100,0,0,100,0.00,40.00,0,-999,0,0.01
2013-11-20,31,30,29,-100,-100,-100,0,0,100,0.00,40.00,0,-999,0,0.01
2013-11-21,36,31,29,-100,-100,-100,0,0,100,0.00,40.00,0,-999,0,0.01
2013-11-22,30,27,24,-100,-100,-100,0,0,100,0.00,40.00,0,-999,0,0.00
2013-11-23,34,30,24,-100,-100,-100,0,0,100,0.00,40.00,0,-999,0,0.00
2013-11-24,31,28,23,-100,-100,-100,0,0,100,0.00,40.00,0,-999,0,0.00
2013-11-25,26,21,14,-100,-100,-100,0,0,100,0.00,40.00,0,-999,0,0.00
2013-11-26,34,22,11,-100,-100,-100,0,0,100,0.00,40.00,0,-999,0,0.00
2013-11-27,40,21,9,-100,-100,-100,0,0,100,0.00,40.00,0,-999,0,0.00
2013-11-28,43,24,13,-100,-100,-100,0,0,100,0.00,40.00,0,-999,0,0.00
2013-11-29,36,22,13,-100,-100,-100,0,0,100,0.00,40.00,0,-999,0,0.00
2013-11-30,35,20,9,-100,-100,-100,0,0,100,0.00,40.00,0,-999,0,0.00
2013-12-1,33,20,9,-100,-100,-100,0,0,100,0.00,40.00,0,-999,0,0.00
2013-12-2,35,33,31,-100,-100,-100,0,0,100,0.00,40.00,0,-999,0,0.00
2013-12-3,32,30,28,-100,-100,-100,0,0,100,0.00,40.00,0,-999,0,0.00
2013-12-4,29,15,5,-100,-100,-100,0,0,100,0.00,40.00,0,-999,0,0.02
2013-12-5,9,-3,-19,-100,-100,-100,0,0,100,0.00,40.00,0,-999,0,0.00
2013-12-6,8,-6,-14,-100,-100,-100,0,0,100,0.00,40.00,0,-999,0,0.00
2013-12-7,17,11,4,-100,-100,-100,0,0,100,0.00,40.00,0,-999,0,0.01
2013-12-8,8,6,3,-100,-100,-100,0,0,100,0.00,40.00,0,-999,0,0.01
2013-12-9,3,-8,-18,-100,-100,-100,0,0,100,0.00,40.00,0,-999,0,0.01
2013-12-10,22,13,-5,-100,-100,-100,0,0,100,0.00,40.00,0,-999,0,0.01
2013-12-11,28,16,3,-100,-100,-100,0,0,100,0.00,40.00,0,-999,0,0.00
2013-12-13,29,20,6,-100,-100,-100,0,0,100,0.00,40.00,0,-999,0,0.00
2013-12-14,22,16,8,-100,-100,-100,0,0,100,0.00,40.00,0,-999,0,0.00
2013-12-15,33,27,21,-100,-100,-100,0,0,100,0.00,40.00,0,-999,0,0.00
2013-12-16,40,24,12,-100,-100,-100,0,0,100,0.00,40.00,0,-999,0,0.00
2013-12-17,25,16,11,-100,-100,-100,0,0,100,0.00,40.00,0,-999,0,0.00
2013-12-18,25,20,15,-100,-100,-100,0,0,100,0.00,40.00,0,-999,0,0.00
2013-12-19,37,31,24,-100,-100,-100,0,0,100,0.00,40.00,0,-999,0,0.00
2013-12-22,20,15,7,-100,-100,-100,0,0,100,0.00,40.00,0,-999,0,0.01
2013-12-23,25,19,16,-100,-100,-100,0,0,100,0.00,40.00,0,-999,0,0.00
2013-12-24,28,24,13,-100,-100,-100,0,0,100,0.00,40.00,0,-999,0,0.01
2013-12-25,19,8,-4,-100,-100,-100,0,0,100,0.00,40.00,0,-999,0,0.00
2013-12-26,33,22,1,-100,-100,-100,0,0,100,0.00,40.00,0,-999,0,0.00
2013-12-27,9,9,9,-100,-100,-100,0,0,100,0.00,40.00,0,-999,0,0.00
2013-12-28,30,26,22,-100,-100,-100,0,0,100,0.00,40.00,0,-999,0,0.00
2013-12-29,21,21,21,-100,-100,-100,0,0,100,0.00,40.00,0,-999,0,0.00
2013-12-30,23,19,16,-100,-100,-100,0,0,100,0.00,40.00,0,-999,0,0.00
2013-12-31,30,25,15,-100,-100,-100,0,0,100,0.00,40.00,0,-999,0,0.00
2014-1-1,26,20,4,-100,-100,-100,0,0,100,0.00,40.00,0,-999,0,0.01
2014-1-2,33,19,2,-100,-100,-100,0,0,100,0.00,40.00,0,-999,0,0.00